sensor_id;sensor_type;location;lat;lon;timestamp;P1;durP1;ratioP1;P2;durP2;ratioP2
44126;SDS011;29786;50.798;7.302;2022-09-12T00:00:14;22.3;;;14.5;;
44126;SDS011;29786;50.798;7.302;2022-09-12T00:01:15;23.3;;;14.6;;
44126;SDS011;29786;50.798;7.302;2022-09-12T00:02:14;21;;;14.3;;
44126;SDS011;29786;50.798;7.302;2022-09-12T00:03:14;20.8;;;14.2;;
44126;SDS011;29786;50.798;7.302;2022-09-12T00:04:14;21.2;;;14.3;;
44126;SDS011;29786;50.798;7.302;2022-09-12T00:05:14;20.8;;;13.7;;
44126;SDS011;29786;50.798;7.302;2022-09-12T00:06:17;18.9;;;12.6;;
44126;SDS011;29786;50.798;7.302;2022-09-12T00:07:14;21.1;;;14;;
44126;SDS011;29786;50.798;7.302;2022-09-12T00:08:14;21.8;;;14.4;;
44126;SDS011;29786;50.798;7.302;2022-09-12T00:09:14;21;;;14.8;;
44126;SDS011;29786;50.798;7.302;2022-09-12T00:10:14;25.2;;;14.6;;
44126;SDS011;29786;50.798;7.302;2022-09-12T00:11:14;20.6;;;13.9;;
44126;SDS011;29786;50.798;7.302;2022-09-12T00:12:14;21.2;;;13.9;;
44126;SDS011;29786;50.798;7.302;2022-09-12T00:13:14;18.3;;;13.7;;
44126;SDS011;29786;50.798;7.302;2022-09-12T00:14:15;21.6;;;13;;
44126;SDS011;29786;50.798;7.302;2022-09-12T00:15:14;19.8;;;13.3;;
44126;SDS011;29786;50.798;7.302;2022-09-12T00:16:15;19.4;;;13.1;;
44126;SDS011;29786;50.798;7.302;2022-09-12T00:17:14;21.8;;;13.8;;
44126;SDS011;29786;50.798;7.302;2022-09-12T00:18:15;20;;;13.6;;
44126;SDS011;29786;50.798;7.302;2022-09-12T00:19:14;19.2;;;13.2;;
44126;SDS011;29786;50.798;7.302;2022-09-12T00:20:14;23.1;;;14.1;;
44126;SDS011;29786;50.798;7.302;2022-09-12T00:21:15;18.8;;;13.6;;
44126;SDS011;29786;50.798;7.302;2022-09-12T00:22:14;20.1;;;14;;
44126;SDS011;29786;50.798;7.302;2022-09-12T00:23:14;20.4;;;13.8;;
44126;SDS011;29786;50.798;7.302;2022-09-12T00:24:14;18.8;;;13.4;;
44126;SDS011;29786;50.798;7.302;2022-09-12T00:25:14;19;;;13.8;;
44126;SDS011;29786;50.798;7.302;2022-09-12T00:26:14;18.8;;;13;;
44126;SDS011;29786;50.798;7.302;2022-09-12T00:27:14;21.3;;;13.3;;
44126;SDS011;29786;50.798;7.302;2022-09-12T00:28:15;18;;;13.4;;
44126;SDS011;29786;50.798;7.302;2022-09-12T00:29:15;17.1;;;12.7;;
44126;SDS011;29786;50.798;7.302;2022-09-12T00:30:14;18.5;;;13;;
44126;SDS011;29786;50.798;7.302;2022-09-12T00:31:15;19.4;;;14.1;;
44126;SDS011;29786;50.798;7.302;2022-09-12T00:32:14;18.7;;;13.3;;
44126;SDS011;29786;50.798;7.302;2022-09-12T00:33:15;18.6;;;13.4;;
44126;SDS011;29786;50.798;7.302;2022-09-12T00:34:14;21.4;;;13.7;;
44126;SDS011;29786;50.798;7.302;2022-09-12T00:35:14;20.6;;;13.9;;
44126;SDS011;29786;50.798;7.302;2022-09-12T00:36:15;22.3;;;14.3;;
44126;SDS011;29786;50.798;7.302;2022-09-12T00:37:14;20.7;;;13.6;;
44126;SDS011;29786;50.798;7.302;2022-09-12T00:38:14;19.2;;;13.7;;
44126;SDS011;29786;50.798;7.302;2022-09-12T00:39:14;22.3;;;14.1;;
44126;SDS011;29786;50.798;7.302;2022-09-12T00:40:14;19.8;;;13.9;;
44126;SDS011;29786;50.798;7.302;2022-09-12T00:41:16;21.1;;;14.3;;
44126;SDS011;29786;50.798;7.302;2022-09-12T00:42:14;20.1;;;13.7;;
44126;SDS011;29786;50.798;7.302;2022-09-12T00:43:46;20.1;;;14.1;;
44126;SDS011;29786;50.798;7.302;2022-09-12T00:45:19;19.2;;;13.5;;
44126;SDS011;29786;50.798;7.302;2022-09-12T00:46:48;21.4;;;14.4;;
44126;SDS011;29786;50.798;7.302;2022-09-12T00:47:15;21.1;;;13.4;;
44126;SDS011;29786;50.798;7.302;2022-09-12T00:48:16;22.4;;;14.4;;
44126;SDS011;29786;50.798;7.302;2022-09-12T00:49:16;20.1;;;13.9;;
44126;SDS011;29786;50.798;7.302;2022-09-12T00:50:14;19.4;;;13.9;;
44126;SDS011;29786;50.798;7.302;2022-09-12T00:51:15;19.4;;;13.5;;
44126;SDS011;29786;50.798;7.302;2022-09-12T00:52:15;21;;;13.3;;
44126;SDS011;29786;50.798;7.302;2022-09-12T00:53:14;22.6;;;13.8;;
44126;SDS011;29786;50.798;7.302;2022-09-12T00:54:15;20.5;;;12.8;;
44126;SDS011;29786;50.798;7.302;2022-09-12T00:55:15;19.5;;;13.4;;
44126;SDS011;29786;50.798;7.302;2022-09-12T00:56:14;18.5;;;13.2;;
44126;SDS011;29786;50.798;7.302;2022-09-12T00:57:14;18.3;;;12.4;;
44126;SDS011;29786;50.798;7.302;2022-09-12T00:58:48;18.1;;;13.2;;
44126;SDS011;29786;50.798;7.302;2022-09-12T00:59:16;16.7;;;12;;
44126;SDS011;29786;50.798;7.302;2022-09-12T01:00:15;19.7;;;12.5;;
44126;SDS011;29786;50.798;7.302;2022-09-12T01:01:14;19.9;;;13.1;;
44126;SDS011;29786;50.798;7.302;2022-09-12T01:02:14;17.3;;;13.1;;
44126;SDS011;29786;50.798;7.302;2022-09-12T01:03:15;17.8;;;12.5;;
44126;SDS011;29786;50.798;7.302;2022-09-12T01:04:14;19.7;;;12.9;;
44126;SDS011;29786;50.798;7.302;2022-09-12T01:05:14;15.9;;;12.3;;
44126;SDS011;29786;50.798;7.302;2022-09-12T01:06:15;19.5;;;12.9;;
44126;SDS011;29786;50.798;7.302;2022-09-12T01:07:14;18.5;;;12.9;;
44126;SDS011;29786;50.798;7.302;2022-09-12T01:08:14;18;;;12.7;;
44126;SDS011;29786;50.798;7.302;2022-09-12T01:09:15;16.9;;;12.7;;
44126;SDS011;29786;50.798;7.302;2022-09-12T01:10:14;17.3;;;12.2;;
44126;SDS011;29786;50.798;7.302;2022-09-12T01:11:14;16.7;;;11.8;;
44126;SDS011;29786;50.798;7.302;2022-09-12T01:12:14;19.9;;;13.1;;
44126;SDS011;29786;50.798;7.302;2022-09-12T01:13:14;21.8;;;13.3;;
44126;SDS011;29786;50.798;7.302;2022-09-12T01:14:14;19.8;;;12.7;;
44126;SDS011;29786;50.798;7.302;2022-09-12T01:15:14;15.8;;;11.9;;
44126;SDS011;29786;50.798;7.302;2022-09-12T01:16:14;18.1;;;12.7;;
44126;SDS011;29786;50.798;7.302;2022-09-12T01:17:14;18.8;;;13.4;;
44126;SDS011;29786;50.798;7.302;2022-09-12T01:18:18;18.8;;;12.5;;
44126;SDS011;29786;50.798;7.302;2022-09-12T01:19:24;19.9;;;12.7;;
44126;SDS011;29786;50.798;7.302;2022-09-12T01:20:28;21;;;13.7;;
44126;SDS011;29786;50.798;7.302;2022-09-12T01:21:27;20.2;;;12.8;;
44126;SDS011;29786;50.798;7.302;2022-09-12T01:23:22;19.6;;;12.3;;
44126;SDS011;29786;50.798;7.302;2022-09-12T01:24:21;20.4;;;12.6;;
44126;SDS011;29786;50.798;7.302;2022-09-12T01:25:21;18.4;;;12.1;;
44126;SDS011;29786;50.798;7.302;2022-09-12T01:26:20;17.8;;;12.9;;
44126;SDS011;29786;50.798;7.302;2022-09-12T01:27:24;18.8;;;12.8;;
44126;SDS011;29786;50.798;7.302;2022-09-12T01:28:21;15.6;;;11.9;;
44126;SDS011;29786;50.798;7.302;2022-09-12T01:30:23;16.4;;;12.6;;
44126;SDS011;29786;50.798;7.302;2022-09-12T01:32:16;16;;;11.5;;
44126;SDS011;29786;50.798;7.302;2022-09-12T01:33:50;17.2;;;12.5;;
44126;SDS011;29786;50.798;7.302;2022-09-12T01:34:17;14.1;;;11.1;;
44126;SDS011;29786;50.798;7.302;2022-09-12T01:35:19;18.6;;;12.9;;
44126;SDS011;29786;50.798;7.302;2022-09-12T01:36:19;17.1;;;12;;
44126;SDS011;29786;50.798;7.302;2022-09-12T01:37:16;15.4;;;12;;
44126;SDS011;29786;50.798;7.302;2022-09-12T01:38:47;15.8;;;12.2;;
44126;SDS011;29786;50.798;7.302;2022-09-12T01:39:18;17.2;;;12.2;;
44126;SDS011;29786;50.798;7.302;2022-09-12T01:40:17;14.8;;;11;;
44126;SDS011;29786;50.798;7.302;2022-09-12T01:41:23;16.4;;;11.5;;
44126;SDS011;29786;50.798;7.302;2022-09-12T01:42:24;16.5;;;12.1;;
44126;SDS011;29786;50.798;7.302;2022-09-12T01:43:17;15.9;;;11.6;;
44126;SDS011;29786;50.798;7.302;2022-09-12T01:44:20;17.3;;;12.4;;
44126;SDS011;29786;50.798;7.302;2022-09-12T01:45:15;16.9;;;12.1;;
44126;SDS011;29786;50.798;7.302;2022-09-12T01:46:18;16.8;;;12.6;;
44126;SDS011;29786;50.798;7.302;2022-09-12T01:47:31;14.7;;;11.3;;
44126;SDS011;29786;50.798;7.302;2022-09-12T01:48:15;15.6;;;11.6;;
44126;SDS011;29786;50.798;7.302;2022-09-12T01:49:17;16.2;;;11.6;;
44126;SDS011;29786;50.798;7.302;2022-09-12T01:50:16;19.6;;;12.4;;
44126;SDS011;29786;50.798;7.302;2022-09-12T01:51:17;19.3;;;12;;
44126;SDS011;29786;50.798;7.302;2022-09-12T01:52:16;16.7;;;11.1;;
44126;SDS011;29786;50.798;7.302;2022-09-12T01:53:15;16.3;;;11.7;;
44126;SDS011;29786;50.798;7.302;2022-09-12T01:54:16;16.1;;;11.4;;
44126;SDS011;29786;50.798;7.302;2022-09-12T01:55:16;17.8;;;12;;
44126;SDS011;29786;50.798;7.302;2022-09-12T01:56:16;18.2;;;12.4;;
44126;SDS011;29786;50.798;7.302;2022-09-12T01:57:17;13.8;;;10.7;;
44126;SDS011;29786;50.798;7.302;2022-09-12T01:58:16;14;;;10.7;;
44126;SDS011;29786;50.798;7.302;2022-09-12T01:59:17;17.2;;;11.3;;
44126;SDS011;29786;50.798;7.302;2022-09-12T02:00:14;17.9;;;11.7;;
44126;SDS011;29786;50.798;7.302;2022-09-12T02:01:15;15.8;;;11.6;;
44126;SDS011;29786;50.798;7.302;2022-09-12T02:02:17;15.9;;;11.4;;
44126;SDS011;29786;50.798;7.302;2022-09-12T02:03:15;15.6;;;10.5;;
44126;SDS011;29786;50.798;7.302;2022-09-12T02:04:17;16.7;;;11.7;;
44126;SDS011;29786;50.798;7.302;2022-09-12T02:05:19;15.4;;;10.6;;
44126;SDS011;29786;50.798;7.302;2022-09-12T02:06:17;16;;;11.1;;
44126;SDS011;29786;50.798;7.302;2022-09-12T02:07:17;17.3;;;10.6;;
44126;SDS011;29786;50.798;7.302;2022-09-12T02:08:16;16.3;;;11.6;;
44126;SDS011;29786;50.798;7.302;2022-09-12T02:09:17;14.2;;;11.1;;
44126;SDS011;29786;50.798;7.302;2022-09-12T02:10:16;15.3;;;11.2;;
44126;SDS011;29786;50.798;7.302;2022-09-12T02:11:14;16.2;;;11.3;;
44126;SDS011;29786;50.798;7.302;2022-09-12T02:12:15;17.1;;;11;;
44126;SDS011;29786;50.798;7.302;2022-09-12T02:13:16;15.8;;;10.7;;
44126;SDS011;29786;50.798;7.302;2022-09-12T02:14:15;16.1;;;11.3;;
44126;SDS011;29786;50.798;7.302;2022-09-12T02:15:15;16.8;;;10.7;;
44126;SDS011;29786;50.798;7.302;2022-09-12T02:16:17;13;;;10.3;;
44126;SDS011;29786;50.798;7.302;2022-09-12T02:17:17;17.3;;;11.7;;
44126;SDS011;29786;50.798;7.302;2022-09-12T02:18:15;15.6;;;11.2;;
44126;SDS011;29786;50.798;7.302;2022-09-12T02:19:15;14.3;;;10.9;;
44126;SDS011;29786;50.798;7.302;2022-09-12T02:20:17;15.7;;;10.4;;
44126;SDS011;29786;50.798;7.302;2022-09-12T02:21:14;15.1;;;10.3;;
44126;SDS011;29786;50.798;7.302;2022-09-12T02:22:15;15.2;;;10.3;;
44126;SDS011;29786;50.798;7.302;2022-09-12T02:23:16;15.7;;;10.9;;
44126;SDS011;29786;50.798;7.302;2022-09-12T02:24:14;15.3;;;11.2;;
44126;SDS011;29786;50.798;7.302;2022-09-12T02:25:14;16.2;;;11.1;;
44126;SDS011;29786;50.798;7.302;2022-09-12T02:26:18;17.3;;;11.1;;
44126;SDS011;29786;50.798;7.302;2022-09-12T02:27:15;15.6;;;11.2;;
44126;SDS011;29786;50.798;7.302;2022-09-12T02:28:15;16.2;;;10.8;;
44126;SDS011;29786;50.798;7.302;2022-09-12T02:29:15;16;;;10.6;;
44126;SDS011;29786;50.798;7.302;2022-09-12T02:30:14;15.1;;;11.6;;
44126;SDS011;29786;50.798;7.302;2022-09-12T02:31:19;15.6;;;11.8;;
44126;SDS011;29786;50.798;7.302;2022-09-12T02:32:18;16;;;11.4;;
44126;SDS011;29786;50.798;7.302;2022-09-12T02:33:18;15.9;;;11.9;;
44126;SDS011;29786;50.798;7.302;2022-09-12T02:34:50;15;;;11.2;;
44126;SDS011;29786;50.798;7.302;2022-09-12T02:35:19;17.9;;;11.8;;
44126;SDS011;29786;50.798;7.302;2022-09-12T02:36:17;16.8;;;11.5;;
44126;SDS011;29786;50.798;7.302;2022-09-12T02:37:20;15.7;;;10.7;;
44126;SDS011;29786;50.798;7.302;2022-09-12T02:38:19;14.3;;;10.9;;
44126;SDS011;29786;50.798;7.302;2022-09-12T02:39:14;19.3;;;12.4;;
44126;SDS011;29786;50.798;7.302;2022-09-12T02:40:14;14;;;10.9;;
44126;SDS011;29786;50.798;7.302;2022-09-12T02:41:16;16.4;;;11.5;;
44126;SDS011;29786;50.798;7.302;2022-09-12T02:42:14;16.7;;;11.1;;
44126;SDS011;29786;50.798;7.302;2022-09-12T02:43:14;15.4;;;11.8;;
44126;SDS011;29786;50.798;7.302;2022-09-12T02:44:14;16.8;;;11.6;;
44126;SDS011;29786;50.798;7.302;2022-09-12T02:45:14;14.2;;;10.9;;
44126;SDS011;29786;50.798;7.302;2022-09-12T02:46:18;14.7;;;10.9;;
44126;SDS011;29786;50.798;7.302;2022-09-12T02:47:17;17;;;11.6;;
44126;SDS011;29786;50.798;7.302;2022-09-12T02:48:16;15.3;;;11.2;;
44126;SDS011;29786;50.798;7.302;2022-09-12T02:49:14;17.6;;;11.4;;
44126;SDS011;29786;50.798;7.302;2022-09-12T02:50:14;15.5;;;12;;
44126;SDS011;29786;50.798;7.302;2022-09-12T02:51:14;13.6;;;11;;
44126;SDS011;29786;50.798;7.302;2022-09-12T02:52:14;18.2;;;12.2;;
44126;SDS011;29786;50.798;7.302;2022-09-12T02:53:14;17.3;;;11.5;;
44126;SDS011;29786;50.798;7.302;2022-09-12T02:54:14;15.7;;;11.3;;
44126;SDS011;29786;50.798;7.302;2022-09-12T02:55:14;14.9;;;11.6;;
44126;SDS011;29786;50.798;7.302;2022-09-12T02:56:17;15.9;;;11.7;;
44126;SDS011;29786;50.798;7.302;2022-09-12T02:57:15;16.5;;;11;;
44126;SDS011;29786;50.798;7.302;2022-09-12T02:58:19;14.6;;;10.4;;
44126;SDS011;29786;50.798;7.302;2022-09-12T02:59:15;15.6;;;11.1;;
44126;SDS011;29786;50.798;7.302;2022-09-12T03:00:14;14.9;;;10.8;;
44126;SDS011;29786;50.798;7.302;2022-09-12T03:01:22;15.2;;;11.3;;
44126;SDS011;29786;50.798;7.302;2022-09-12T03:02:20;13.7;;;11;;
44126;SDS011;29786;50.798;7.302;2022-09-12T03:03:25;18.5;;;12.2;;
44126;SDS011;29786;50.798;7.302;2022-09-12T03:04:23;14.6;;;10.5;;
44126;SDS011;29786;50.798;7.302;2022-09-12T03:05:16;14.2;;;10.4;;
44126;SDS011;29786;50.798;7.302;2022-09-12T03:06:17;16.2;;;11.1;;
44126;SDS011;29786;50.798;7.302;2022-09-12T03:07:19;16.4;;;11.2;;
44126;SDS011;29786;50.798;7.302;2022-09-12T03:08:19;18.2;;;12.1;;
44126;SDS011;29786;50.798;7.302;2022-09-12T03:09:15;16.2;;;11.8;;
44126;SDS011;29786;50.798;7.302;2022-09-12T03:10:21;16.8;;;11;;
44126;SDS011;29786;50.798;7.302;2022-09-12T03:11:41;16.7;;;11.7;;
44126;SDS011;29786;50.798;7.302;2022-09-12T03:12:19;14.4;;;10.7;;
44126;SDS011;29786;50.798;7.302;2022-09-12T03:13:17;16.2;;;11.5;;
44126;SDS011;29786;50.798;7.302;2022-09-12T03:14:50;16.7;;;11.1;;
44126;SDS011;29786;50.798;7.302;2022-09-12T03:16:17;18.3;;;11.5;;
44126;SDS011;29786;50.798;7.302;2022-09-12T03:18:18;14.4;;;10.5;;
44126;SDS011;29786;50.798;7.302;2022-09-12T03:19:20;16.7;;;10.8;;
44126;SDS011;29786;50.798;7.302;2022-09-12T03:20:16;14.4;;;10.9;;
44126;SDS011;29786;50.798;7.302;2022-09-12T03:21:32;14.9;;;11.1;;
44126;SDS011;29786;50.798;7.302;2022-09-12T03:22:16;16.7;;;10.9;;
44126;SDS011;29786;50.798;7.302;2022-09-12T03:23:19;14.4;;;11.3;;
44126;SDS011;29786;50.798;7.302;2022-09-12T03:24:19;15.2;;;11.2;;
44126;SDS011;29786;50.798;7.302;2022-09-12T03:25:16;15;;;10.4;;
44126;SDS011;29786;50.798;7.302;2022-09-12T03:26:15;14.4;;;10.9;;
44126;SDS011;29786;50.798;7.302;2022-09-12T03:27:16;15.5;;;11;;
44126;SDS011;29786;50.798;7.302;2022-09-12T03:28:19;15.1;;;10.7;;
44126;SDS011;29786;50.798;7.302;2022-09-12T03:29:14;16;;;10.7;;
44126;SDS011;29786;50.798;7.302;2022-09-12T03:30:14;15.7;;;10.6;;
44126;SDS011;29786;50.798;7.302;2022-09-12T03:31:15;14;;;10.7;;
44126;SDS011;29786;50.798;7.302;2022-09-12T03:32:14;13.7;;;10.4;;
44126;SDS011;29786;50.798;7.302;2022-09-12T03:33:15;15.2;;;11;;
44126;SDS011;29786;50.798;7.302;2022-09-12T03:34:14;12.8;;;10;;
44126;SDS011;29786;50.798;7.302;2022-09-12T03:35:15;14.8;;;10.9;;
44126;SDS011;29786;50.798;7.302;2022-09-12T03:36:15;15.2;;;11.4;;
44126;SDS011;29786;50.798;7.302;2022-09-12T03:37:14;16.4;;;10.4;;
44126;SDS011;29786;50.798;7.302;2022-09-12T03:38:14;14.5;;;10.9;;
44126;SDS011;29786;50.798;7.302;2022-09-12T03:39:14;14.2;;;10.6;;
44126;SDS011;29786;50.798;7.302;2022-09-12T03:40:14;15.2;;;10.6;;
44126;SDS011;29786;50.798;7.302;2022-09-12T03:41:14;16;;;11;;
44126;SDS011;29786;50.798;7.302;2022-09-12T03:42:14;16.3;;;10.8;;
44126;SDS011;29786;50.798;7.302;2022-09-12T03:43:14;16;;;10.5;;
44126;SDS011;29786;50.798;7.302;2022-09-12T03:44:14;16.4;;;10.1;;
44126;SDS011;29786;50.798;7.302;2022-09-12T03:45:14;14.9;;;11.2;;
44126;SDS011;29786;50.798;7.302;2022-09-12T03:46:14;14.4;;;10.7;;
44126;SDS011;29786;50.798;7.302;2022-09-12T03:47:14;16.8;;;11.1;;
44126;SDS011;29786;50.798;7.302;2022-09-12T03:48:14;14.3;;;10.7;;
44126;SDS011;29786;50.798;7.302;2022-09-12T03:49:14;14.6;;;10;;
44126;SDS011;29786;50.798;7.302;2022-09-12T03:50:14;13;;;9.9;;
44126;SDS011;29786;50.798;7.302;2022-09-12T03:51:14;15.2;;;10.4;;
44126;SDS011;29786;50.798;7.302;2022-09-12T03:52:14;17.2;;;11.2;;
44126;SDS011;29786;50.798;7.302;2022-09-12T03:53:14;15.8;;;11.1;;
44126;SDS011;29786;50.798;7.302;2022-09-12T03:54:14;14.2;;;10.8;;
44126;SDS011;29786;50.798;7.302;2022-09-12T03:55:14;14.2;;;10.5;;
44126;SDS011;29786;50.798;7.302;2022-09-12T03:56:15;14;;;10;;
44126;SDS011;29786;50.798;7.302;2022-09-12T03:57:14;16.7;;;11.1;;
44126;SDS011;29786;50.798;7.302;2022-09-12T03:58:14;16.9;;;10.1;;
44126;SDS011;29786;50.798;7.302;2022-09-12T03:59:14;14.8;;;10.1;;
44126;SDS011;29786;50.798;7.302;2022-09-12T04:00:14;14.1;;;10.5;;
44126;SDS011;29786;50.798;7.302;2022-09-12T04:01:15;14.8;;;10.5;;
44126;SDS011;29786;50.798;7.302;2022-09-12T04:02:14;16.4;;;11;;
44126;SDS011;29786;50.798;7.302;2022-09-12T04:03:14;12.9;;;10.1;;
44126;SDS011;29786;50.798;7.302;2022-09-12T04:04:14;14.5;;;10.5;;
44126;SDS011;29786;50.798;7.302;2022-09-12T04:05:14;14.6;;;10.8;;
44126;SDS011;29786;50.798;7.302;2022-09-12T04:06:15;14.9;;;11.2;;
44126;SDS011;29786;50.798;7.302;2022-09-12T04:07:15;14.4;;;10.3;;
44126;SDS011;29786;50.798;7.302;2022-09-12T04:08:14;15.1;;;10;;
44126;SDS011;29786;50.798;7.302;2022-09-12T04:09:14;14.5;;;10.7;;
44126;SDS011;29786;50.798;7.302;2022-09-12T04:10:14;14.9;;;10.5;;
44126;SDS011;29786;50.798;7.302;2022-09-12T04:11:15;14.5;;;10.8;;
44126;SDS011;29786;50.798;7.302;2022-09-12T04:12:14;13.4;;;10;;
44126;SDS011;29786;50.798;7.302;2022-09-12T04:13:14;14.9;;;10.1;;
44126;SDS011;29786;50.798;7.302;2022-09-12T04:14:14;15.9;;;10.5;;
44126;SDS011;29786;50.798;7.302;2022-09-12T04:15:14;16.7;;;10.5;;
44126;SDS011;29786;50.798;7.302;2022-09-12T04:16:14;17;;;11.1;;
44126;SDS011;29786;50.798;7.302;2022-09-12T04:17:14;12.6;;;9.9;;
44126;SDS011;29786;50.798;7.302;2022-09-12T04:18:14;13.8;;;10.4;;
44126;SDS011;29786;50.798;7.302;2022-09-12T04:19:14;14.8;;;10.5;;
44126;SDS011;29786;50.798;7.302;2022-09-12T04:20:14;15.1;;;9.9;;
44126;SDS011;29786;50.798;7.302;2022-09-12T04:21:16;16.2;;;10.9;;
44126;SDS011;29786;50.798;7.302;2022-09-12T04:22:14;14.2;;;10;;
44126;SDS011;29786;50.798;7.302;2022-09-12T04:23:14;15.3;;;10.6;;
44126;SDS011;29786;50.798;7.302;2022-09-12T04:24:14;13.7;;;10.1;;
44126;SDS011;29786;50.798;7.302;2022-09-12T04:25:14;14.8;;;10.3;;
44126;SDS011;29786;50.798;7.302;2022-09-12T04:26:15;14.2;;;10.1;;
44126;SDS011;29786;50.798;7.302;2022-09-12T04:27:14;14.4;;;10.6;;
44126;SDS011;29786;50.798;7.302;2022-09-12T04:28:14;16.3;;;10;;
44126;SDS011;29786;50.798;7.302;2022-09-12T04:29:14;16;;;10.7;;
44126;SDS011;29786;50.798;7.302;2022-09-12T04:30:14;14.2;;;10.5;;
44126;SDS011;29786;50.798;7.302;2022-09-12T04:31:15;14.8;;;10.5;;
44126;SDS011;29786;50.798;7.302;2022-09-12T04:32:14;14.4;;;10.9;;
44126;SDS011;29786;50.798;7.302;2022-09-12T04:33:14;14.2;;;10.7;;
44126;SDS011;29786;50.798;7.302;2022-09-12T04:34:14;14.8;;;10.4;;
44126;SDS011;29786;50.798;7.302;2022-09-12T04:35:14;14;;;10.6;;
44126;SDS011;29786;50.798;7.302;2022-09-12T04:36:15;16.5;;;10.6;;
44126;SDS011;29786;50.798;7.302;2022-09-12T04:37:14;14.1;;;10.4;;
44126;SDS011;29786;50.798;7.302;2022-09-12T04:38:14;16.2;;;10.2;;
44126;SDS011;29786;50.798;7.302;2022-09-12T04:39:14;14.2;;;10.5;;
44126;SDS011;29786;50.798;7.302;2022-09-12T04:40:14;14.9;;;10.2;;
44126;SDS011;29786;50.798;7.302;2022-09-12T04:41:18;15.3;;;10.8;;
44126;SDS011;29786;50.798;7.302;2022-09-12T04:42:14;15.9;;;10.4;;
44126;SDS011;29786;50.798;7.302;2022-09-12T04:43:14;16.2;;;10.8;;
44126;SDS011;29786;50.798;7.302;2022-09-12T04:44:14;17.8;;;11.2;;
44126;SDS011;29786;50.798;7.302;2022-09-12T04:45:14;15.6;;;11;;
44126;SDS011;29786;50.798;7.302;2022-09-12T04:46:15;15;;;10.4;;
44126;SDS011;29786;50.798;7.302;2022-09-12T04:47:14;15;;;11.3;;
44126;SDS011;29786;50.798;7.302;2022-09-12T04:48:14;15.8;;;11.3;;
44126;SDS011;29786;50.798;7.302;2022-09-12T04:49:14;14.1;;;10.2;;
44126;SDS011;29786;50.798;7.302;2022-09-12T04:50:14;15.3;;;10.4;;
44126;SDS011;29786;50.798;7.302;2022-09-12T04:51:16;15;;;10.3;;
44126;SDS011;29786;50.798;7.302;2022-09-12T04:52:14;14.3;;;9.9;;
44126;SDS011;29786;50.798;7.302;2022-09-12T04:53:14;12.9;;;9.6;;
44126;SDS011;29786;50.798;7.302;2022-09-12T04:54:15;15.5;;;10.3;;
44126;SDS011;29786;50.798;7.302;2022-09-12T04:55:14;14.5;;;9.3;;
44126;SDS011;29786;50.798;7.302;2022-09-12T04:56:14;11.9;;;9.5;;
44126;SDS011;29786;50.798;7.302;2022-09-12T04:57:14;12.5;;;9.2;;
44126;SDS011;29786;50.798;7.302;2022-09-12T04:58:14;14.1;;;9.4;;
44126;SDS011;29786;50.798;7.302;2022-09-12T04:59:15;13.4;;;9.4;;
44126;SDS011;29786;50.798;7.302;2022-09-12T05:00:14;13.6;;;9.5;;
44126;SDS011;29786;50.798;7.302;2022-09-12T05:01:15;12.3;;;9.9;;
44126;SDS011;29786;50.798;7.302;2022-09-12T05:02:14;13.7;;;9.3;;
44126;SDS011;29786;50.798;7.302;2022-09-12T05:03:19;13.1;;;9;;
44126;SDS011;29786;50.798;7.302;2022-09-12T05:04:14;12.8;;;9.5;;
44126;SDS011;29786;50.798;7.302;2022-09-12T05:05:14;12.9;;;9.4;;
44126;SDS011;29786;50.798;7.302;2022-09-12T05:06:15;14;;;9.7;;
44126;SDS011;29786;50.798;7.302;2022-09-12T05:07:14;13.1;;;9.1;;
44126;SDS011;29786;50.798;7.302;2022-09-12T05:08:14;16.5;;;10.5;;
44126;SDS011;29786;50.798;7.302;2022-09-12T05:09:14;12.6;;;9.4;;
44126;SDS011;29786;50.798;7.302;2022-09-12T05:10:14;13;;;9.7;;
44126;SDS011;29786;50.798;7.302;2022-09-12T05:11:16;13.9;;;9.5;;
44126;SDS011;29786;50.798;7.302;2022-09-12T05:12:14;15;;;10.5;;
44126;SDS011;29786;50.798;7.302;2022-09-12T05:13:14;15;;;9.6;;
44126;SDS011;29786;50.798;7.302;2022-09-12T05:14:14;14.6;;;9.6;;
44126;SDS011;29786;50.798;7.302;2022-09-12T05:15:14;14.1;;;10.1;;
44126;SDS011;29786;50.798;7.302;2022-09-12T05:16:15;13;;;9.6;;
44126;SDS011;29786;50.798;7.302;2022-09-12T05:17:14;13.3;;;9.7;;
44126;SDS011;29786;50.798;7.302;2022-09-12T05:18:14;14.2;;;9.7;;
44126;SDS011;29786;50.798;7.302;2022-09-12T05:19:14;13.1;;;9.4;;
44126;SDS011;29786;50.798;7.302;2022-09-12T05:20:14;12.2;;;9;;
44126;SDS011;29786;50.798;7.302;2022-09-12T05:21:15;14.2;;;10.1;;
44126;SDS011;29786;50.798;7.302;2022-09-12T05:22:14;12.1;;;9.5;;
44126;SDS011;29786;50.798;7.302;2022-09-12T05:23:14;12.9;;;9.7;;
44126;SDS011;29786;50.798;7.302;2022-09-12T05:24:14;13.5;;;9.9;;
44126;SDS011;29786;50.798;7.302;2022-09-12T05:25:14;12.9;;;9.7;;
44126;SDS011;29786;50.798;7.302;2022-09-12T05:26:15;13.5;;;9.9;;
44126;SDS011;29786;50.798;7.302;2022-09-12T05:27:14;12.9;;;9.6;;
44126;SDS011;29786;50.798;7.302;2022-09-12T05:28:14;13.7;;;9.7;;
44126;SDS011;29786;50.798;7.302;2022-09-12T05:29:14;12.1;;;9;;
44126;SDS011;29786;50.798;7.302;2022-09-12T05:30:14;14.4;;;10;;
44126;SDS011;29786;50.798;7.302;2022-09-12T05:31:15;11.5;;;9.1;;
44126;SDS011;29786;50.798;7.302;2022-09-12T05:32:14;13.9;;;9.2;;
44126;SDS011;29786;50.798;7.302;2022-09-12T05:33:14;12.6;;;9.1;;
44126;SDS011;29786;50.798;7.302;2022-09-12T05:34:14;14.1;;;10.4;;
44126;SDS011;29786;50.798;7.302;2022-09-12T05:35:14;12.3;;;9.5;;
44126;SDS011;29786;50.798;7.302;2022-09-12T05:36:15;14.4;;;9.7;;
44126;SDS011;29786;50.798;7.302;2022-09-12T05:37:14;13.2;;;9.6;;
44126;SDS011;29786;50.798;7.302;2022-09-12T05:38:14;13.2;;;9.6;;
44126;SDS011;29786;50.798;7.302;2022-09-12T05:39:14;13.6;;;9.9;;
44126;SDS011;29786;50.798;7.302;2022-09-12T05:40:14;13;;;10;;
44126;SDS011;29786;50.798;7.302;2022-09-12T05:41:15;15.1;;;10.2;;
44126;SDS011;29786;50.798;7.302;2022-09-12T05:42:14;12.2;;;9.8;;
44126;SDS011;29786;50.798;7.302;2022-09-12T05:43:14;12.5;;;9.9;;
44126;SDS011;29786;50.798;7.302;2022-09-12T05:44:14;15;;;10.3;;
44126;SDS011;29786;50.798;7.302;2022-09-12T05:45:14;11.4;;;8.9;;
44126;SDS011;29786;50.798;7.302;2022-09-12T05:46:15;12.9;;;9.4;;
44126;SDS011;29786;50.798;7.302;2022-09-12T05:47:14;15;;;9.9;;
44126;SDS011;29786;50.798;7.302;2022-09-12T05:48:14;13.8;;;10.5;;
44126;SDS011;29786;50.798;7.302;2022-09-12T05:49:14;13.7;;;9.5;;
44126;SDS011;29786;50.798;7.302;2022-09-12T05:50:14;13.7;;;9.2;;
44126;SDS011;29786;50.798;7.302;2022-09-12T05:51:15;14;;;10.1;;
44126;SDS011;29786;50.798;7.302;2022-09-12T05:52:14;12.5;;;9.5;;
44126;SDS011;29786;50.798;7.302;2022-09-12T05:53:14;13;;;9.6;;
44126;SDS011;29786;50.798;7.302;2022-09-12T05:54:15;15.3;;;10;;
44126;SDS011;29786;50.798;7.302;2022-09-12T05:55:14;12.9;;;9.1;;
44126;SDS011;29786;50.798;7.302;2022-09-12T05:56:15;13.5;;;9.5;;
44126;SDS011;29786;50.798;7.302;2022-09-12T05:57:14;15.1;;;10;;
44126;SDS011;29786;50.798;7.302;2022-09-12T05:58:14;14.7;;;9.7;;
44126;SDS011;29786;50.798;7.302;2022-09-12T05:59:15;13.4;;;9.4;;
44126;SDS011;29786;50.798;7.302;2022-09-12T06:00:14;13;;;9.1;;
44126;SDS011;29786;50.798;7.302;2022-09-12T06:01:15;11.7;;;9.3;;
44126;SDS011;29786;50.798;7.302;2022-09-12T06:02:14;17.4;;;8.9;;
44126;SDS011;29786;50.798;7.302;2022-09-12T06:03:14;17;;;9.5;;
44126;SDS011;29786;50.798;7.302;2022-09-12T06:04:14;14.9;;;9.2;;
44126;SDS011;29786;50.798;7.302;2022-09-12T06:05:14;12.1;;;9;;
44126;SDS011;29786;50.798;7.302;2022-09-12T06:06:15;12.2;;;9.3;;
44126;SDS011;29786;50.798;7.302;2022-09-12T06:07:14;13.5;;;9.3;;
44126;SDS011;29786;50.798;7.302;2022-09-12T06:08:14;13.2;;;8.5;;
44126;SDS011;29786;50.798;7.302;2022-09-12T06:09:14;14.2;;;9.7;;
44126;SDS011;29786;50.798;7.302;2022-09-12T06:10:14;12.8;;;8.5;;